Time;durP1;ratioP1;P1;durP2;ratioP2;P2;SDS_P1;SDS_P2;PMS_P1;PMS_P2;Temp;Humidity;BMP_temperature;BMP_pressure;BME280_temperature;BME280_humidity;BME280_pressure;Samples;Min_cycle;Max_cycle;Signal;HPM_P1;HPM_P2
2022/05/15 00:01:05;;;;;;;9.38;6.70;;;11.20;99.90;;;;;;4988887;28;20749;-84
2022/05/15 00:03:31;;;;;;;16.17;7.63;;;11.20;99.90;;;;;;4988439;28;20034;-84
2022/05/15 00:06:04;;;;;;;15.50;7.10;;;11.10;99.90;;;;;;5004011;28;20483;-84
2022/05/15 00:08:31;;;;;;;11.23;6.45;;;11.20;99.90;;;;;;4989250;28;20113;-84
2022/05/15 00:10:58;;;;;;;15.35;7.05;;;11.20;99.90;;;;;;4988282;28;20049;-84
2022/05/15 00:13:25;;;;;;;9.13;6.95;;;11.30;99.90;;;;;;4990481;28;20173;-84
2022/05/15 00:15:51;;;;;;;12.35;7.15;;;11.30;99.90;;;;;;4989599;28;20030;-84
2022/05/15 00:18:18;;;;;;;14.68;7.55;;;11.20;99.90;;;;;;4988037;28;20026;-84
2022/05/15 00:20:44;;;;;;;14.07;7.28;;;11.20;99.90;;;;;;4990345;28;20034;-84
2022/05/15 00:23:11;;;;;;;12.57;7.32;;;11.10;99.90;;;;;;5005458;28;20040;-84
2022/05/15 00:25:38;;;;;;;14.57;7.38;;;11.00;99.90;;;;;;5005550;28;20683;-84
2022/05/15 00:28:05;;;;;;;10.93;6.85;;;11.00;99.90;;;;;;4989128;28;20118;-84
2022/05/15 00:30:31;;;;;;;12.60;7.65;;;11.00;99.90;;;;;;4993880;28;20113;-84
2022/05/15 00:32:59;;;;;;;11.70;7.53;;;10.90;99.90;;;;;;4990301;28;20099;-84
2022/05/15 00:35:25;;;;;;;10.75;7.53;;;10.90;99.90;;;;;;5005275;28;20093;-84
2022/05/15 00:37:51;;;;;;;13.43;7.55;;;10.80;99.90;;;;;;4972186;28;20035;-84
2022/05/15 00:40:19;;;;;;;11.25;7.82;;;10.80;99.90;;;;;;4990276;28;20441;-84
2022/05/15 00:42:45;;;;;;;10.20;7.60;;;10.90;99.90;;;;;;4990266;28;20028;-84
2022/05/15 00:45:12;;;;;;;10.80;7.63;;;10.90;99.90;;;;;;4989163;28;20932;-84
2022/05/15 00:47:37;;;;;;;11.43;7.68;;;10.80;99.90;;;;;;4990426;28;20054;-84
2022/05/15 00:50:05;;;;;;;16.73;7.65;;;10.70;99.90;;;;;;4990196;28;20037;-84
2022/05/15 00:52:34;;;;;;;15.05;8.07;;;10.70;99.90;;;;;;4988656;28;20030;-84
2022/05/15 00:55:06;;;;;;;11.20;7.57;;;10.70;99.90;;;;;;4990639;28;20443;-84
2022/05/15 00:57:47;;;;;;;10.73;7.60;;;10.80;99.90;;;;;;4989343;28;20029;-84
2022/05/15 01:00:26;;;;;;;12.25;7.80;;;10.80;99.90;;;;;;4989910;28;20014;-84
2022/05/15 01:03:05;;;;;;;15.90;8.55;;;10.70;99.90;;;;;;5002507;28;20034;-83
2022/05/15 01:05:34;;;;;;;15.38;8.23;;;10.70;99.90;;;;;;4990035;28;20064;-84
2022/05/15 01:07:59;;;;;;;13.48;8.18;;;10.60;99.90;;;;;;5007626;28;20034;-82
2022/05/15 01:10:25;;;;;;;9.90;7.53;;;10.50;99.90;;;;;;5015937;28;20037;-82
2022/05/15 01:12:52;;;;;;;15.00;7.68;;;10.50;99.90;;;;;;5014387;28;20098;-82
2022/05/15 01:15:24;;;;;;;14.15;7.22;;;10.50;99.90;;;;;;5027328;28;20033;-82
2022/05/15 01:17:50;;;;;;;12.32;7.47;;;10.50;99.90;;;;;;5000305;28;20029;-82
2022/05/15 01:20:19;;;;;;;11.48;7.00;;;10.40;99.90;;;;;;4995848;28;20031;-82
2022/05/15 01:22:45;;;;;;;13.52;8.10;;;10.30;99.90;;;;;;4991899;28;20030;-82
2022/05/15 01:25:17;;;;;;;15.45;7.20;;;10.30;99.90;;;;;;5007620;28;20125;-82
2022/05/15 01:27:55;;;;;;;10.65;7.60;;;10.20;99.90;;;;;;4993077;28;20089;-82
2022/05/15 01:30:22;;;;;;;12.15;6.97;;;10.20;99.90;;;;;;4985844;28;20026;-82
2022/05/15 01:32:48;;;;;;;14.98;7.65;;;10.10;99.90;;;;;;4993432;28;20058;-82
2022/05/15 01:35:14;;;;;;;17.40;7.38;;;10.10;99.90;;;;;;4993462;28;20113;-82
2022/05/15 01:37:40;;;;;;;16.75;7.28;;;10.10;99.90;;;;;;4991318;28;20018;-82
2022/05/15 01:40:06;;;;;;;13.00;7.70;;;10.00;99.90;;;;;;5008198;28;20035;-82
2022/05/15 01:42:32;;;;;;;12.82;6.90;;;9.90;99.90;;;;;;4993264;28;20496;-82
2022/05/15 01:44:58;;;;;;;11.25;7.78;;;9.90;99.90;;;;;;4992136;28;20038;-82
2022/05/15 01:47:24;;;;;;;12.20;7.15;;;9.80;99.90;;;;;;4992832;28;20490;-82
2022/05/15 01:49:49;;;;;;;12.50;7.18;;;9.70;99.90;;;;;;5008393;28;20042;-82
2022/05/15 01:52:15;;;;;;;9.80;6.90;;;9.60;99.90;;;;;;4992865;28;20057;-82
2022/05/15 01:54:41;;;;;;;10.02;6.95;;;9.60;99.90;;;;;;4991664;28;20477;-82
2022/05/15 01:57:07;;;;;;;10.27;7.13;;;9.50;99.90;;;;;;4992957;28;20462;-82
2022/05/15 01:59:32;;;;;;;9.20;5.85;;;9.50;99.90;;;;;;4993280;28;20822;-82
2022/05/15 02:01:58;;;;;;;15.50;7.85;;;9.50;99.90;;;;;;4992150;28;20038;-82
2022/05/15 02:04:24;;;;;;;10.75;6.70;;;9.40;99.90;;;;;;4992899;28;20030;-82
2022/05/15 02:06:49;;;;;;;9.80;6.70;;;9.40;99.90;;;;;;5007762;28;20042;-84
2022/05/15 02:09:15;;;;;;;9.35;6.65;;;9.30;99.90;;;;;;4989944;28;20391;-82
2022/05/15 02:11:41;;;;;;;11.50;6.07;;;9.30;99.90;;;;;;4980004;28;20390;-82
2022/05/15 02:14:07;;;;;;;10.57;5.90;;;9.20;99.90;;;;;;5001857;28;20394;-82
2022/05/15 02:16:33;;;;;;;9.85;6.68;;;9.20;99.90;;;;;;4987817;28;20369;-82
2022/05/15 02:18:59;;;;;;;11.25;7.10;;;9.20;99.90;;;;;;4987638;28;20030;-82
2022/05/15 02:21:25;;;;;;;11.73;7.80;;;9.20;99.90;;;;;;4989661;28;20037;-82
2022/05/15 02:23:51;;;;;;;13.13;7.20;;;9.30;99.90;;;;;;4983145;28;20038;-82
2022/05/15 02:26:17;;;;;;;12.48;7.72;;;9.60;99.90;;;;;;4990855;28;20030;-82
2022/05/15 02:28:43;;;;;;;10.82;7.05;;;9.70;99.90;;;;;;4989877;28;20038;-82
2022/05/15 02:31:09;;;;;;;11.55;7.47;;;9.80;99.90;;;;;;4985110;28;20589;-82
2022/05/15 02:33:34;;;;;;;12.82;6.70;;;9.90;99.90;;;;;;5006811;28;20038;-82
2022/05/15 02:36:01;;;;;;;11.32;6.72;;;9.90;99.90;;;;;;5006357;28;20507;-82
2022/05/15 02:38:27;;;;;;;8.90;6.88;;;10.00;99.90;;;;;;4979958;28;20057;-82
2022/05/15 02:40:52;;;;;;;11.43;7.03;;;10.00;99.90;;;;;;4977794;28;20069;-82
2022/05/15 02:43:18;;;;;;;12.45;7.32;;;10.10;99.90;;;;;;4976190;28;20025;-82
2022/05/15 02:45:43;;;;;;;11.18;6.45;;;10.10;99.90;;;;;;5002469;28;20054;-82
2022/05/15 02:51:03;;;;;;;10.25;6.72;;;9.90;99.90;;;;;;5002039;28;20026;-82
2022/05/15 02:51:04;;;;;;;12.50;6.20;;;10.00;99.90;;;;;;4990788;28;20042;-82
2022/05/15 02:53:35;;;;;;;11.38;7.47;;;9.90;99.90;;;;;;4972560;28;20027;-82
2022/05/15 02:56:05;;;;;;;20.83;7.30;;;9.90;99.90;;;;;;4982457;28;20027;-85
2022/05/15 02:58:30;;;;;;;13.93;5.70;;;9.80;99.90;;;;;;4987429;28;20041;-85
2022/05/15 03:00:57;;;;;;;10.55;6.45;;;9.80;99.90;;;;;;4989877;28;20274;-82
2022/05/15 03:03:24;;;;;;;10.73;6.38;;;9.80;99.90;;;;;;4981919;28;20471;-82
2022/05/15 03:05:50;;;;;;;10.95;6.90;;;9.70;99.90;;;;;;5006859;28;20034;-82
2022/05/15 03:08:16;;;;;;;13.18;6.45;;;9.70;99.90;;;;;;4986710;28;20093;-82
2022/05/15 03:10:41;;;;;;;15.57;7.28;;;9.70;99.90;;;;;;4987771;28;20118;-82
2022/05/15 03:13:07;;;;;;;10.75;6.65;;;9.60;99.90;;;;;;4988774;28;20038;-82
2022/05/15 03:15:33;;;;;;;9.35;5.63;;;9.50;99.90;;;;;;4991118;28;20132;-82
2022/05/15 03:17:59;;;;;;;10.65;7.03;;;9.40;99.90;;;;;;4990266;28;20419;-82
2022/05/15 03:20:27;;;;;;;9.50;6.70;;;9.40;99.90;;;;;;5002211;28;20124;-82
2022/05/15 03:22:54;;;;;;;11.32;7.38;;;9.40;99.90;;;;;;4997306;28;20025;-82
2022/05/15 03:25:20;;;;;;;17.88;7.20;;;9.40;99.90;;;;;;4990306;28;20034;-82
2022/05/15 03:27:46;;;;;;;14.35;7.00;;;9.30;99.90;;;;;;4990068;28;20117;-82
2022/05/15 03:30:12;;;;;;;14.05;6.95;;;9.30;99.90;;;;;;4991630;28;20452;-83
2022/05/15 03:32:38;;;;;;;12.60;8.15;;;9.20;99.90;;;;;;5006106;28;20038;-82
2022/05/15 03:35:05;;;;;;;12.38;6.70;;;9.20;99.90;;;;;;4991794;28;20359;-83
2022/05/15 03:37:31;;;;;;;12.93;7.32;;;9.20;99.90;;;;;;4989675;28;20482;-83
2022/05/15 03:39:57;;;;;;;13.30;6.72;;;9.20;99.90;;;;;;4991169;28;20199;-83
2022/05/15 03:42:24;;;;;;;9.40;6.85;;;9.30;99.90;;;;;;5007623;28;20589;-83
2022/05/15 03:44:51;;;;;;;9.57;5.82;;;9.30;99.90;;;;;;4992141;28;20113;-83
2022/05/15 03:47:17;;;;;;;12.70;6.53;;;9.30;99.90;;;;;;4989705;28;20078;-83
2022/05/15 03:49:42;;;;;;;8.77;6.40;;;9.40;99.90;;;;;;4990981;28;20061;-83
2022/05/15 03:52:08;;;;;;;10.20;7.05;;;9.40;99.90;;;;;;4993019;28;20030;-82
2022/05/15 03:54:34;;;;;;;12.07;7.10;;;9.30;99.90;;;;;;4989485;28;20105;-83
2022/05/15 03:57:03;;;;;;;15.18;7.68;;;9.30;99.90;;;;;;4978378;28;20042;-82
2022/05/15 03:59:35;;;;;;;13.70;6.97;;;9.40;99.90;;;;;;4988495;28;20027;-83
2022/05/15 04:02:02;;;;;;;10.82;6.60;;;9.50;99.90;;;;;;4989015;28;20050;-83
2022/05/15 04:04:31;;;;;;;10.85;6.40;;;9.50;99.90;;;;;;4990727;28;20026;-83
2022/05/15 04:06:57;;;;;;;11.20;6.35;;;9.50;99.90;;;;;;4990596;28;20076;-83
2022/05/15 04:09:24;;;;;;;11.05;6.32;;;9.50;99.90;;;;;;4988259;28;20139;-83
2022/05/15 04:11:49;;;;;;;9.27;6.85;;;9.60;99.90;;;;;;4986554;28;20026;-83
2022/05/15 04:14:15;;;;;;;17.63;7.65;;;9.60;99.90;;;;;;5003302;28;20049;-83
2022/05/15 04:16:41;;;;;;;11.27;5.80;;;9.60;99.90;;;;;;4995269;28;20030;-83
2022/05/15 04:19:07;;;;;;;11.70;5.80;;;9.60;99.90;;;;;;4996745;28;20026;-84
2022/05/15 04:21:37;;;;;;;12.95;7.10;;;9.70;99.90;;;;;;5019978;28;20033;-84
2022/05/15 04:24:16;;;;;;;9.65;6.85;;;9.80;99.90;;;;;;5004399;28;20308;-84
2022/05/15 04:26:44;;;;;;;9.88;6.25;;;10.00;99.90;;;;;;4998401;28;20030;-84
2022/05/15 04:29:09;;;;;;;12.45;6.65;;;10.00;99.90;;;;;;4992458;28;20593;-84
2022/05/15 04:31:35;;;;;;;11.73;7.82;;;10.10;99.90;;;;;;4990914;28;20113;-84
2022/05/15 04:34:02;;;;;;;14.98;6.95;;;10.30;99.90;;;;;;4988090;28;20080;-84
2022/05/15 04:36:29;;;;;;;10.40;6.50;;;10.40;99.90;;;;;;4983311;28;20501;-84
2022/05/15 04:38:57;;;;;;;11.73;6.75;;;10.50;99.90;;;;;;4989875;28;20033;-84
2022/05/15 04:41:23;;;;;;;10.85;5.20;;;10.50;99.90;;;;;;4982233;28;20029;-84
2022/05/15 04:43:49;;;;;;;10.10;6.18;;;10.60;99.90;;;;;;4991134;28;20390;-84
2022/05/15 04:46:15;;;;;;;11.50;6.30;;;10.70;99.90;;;;;;4990063;28;20096;-84
2022/05/15 04:48:41;;;;;;;10.02;7.10;;;10.80;99.90;;;;;;4989462;28;20034;-84
2022/05/15 04:51:07;;;;;;;9.50;6.30;;;11.00;99.90;;;;;;5009139;28;20038;-83
2022/05/15 04:53:33;;;;;;;9.70;6.18;;;11.00;99.90;;;;;;4994238;28;20058;-83
2022/05/15 04:56:00;;;;;;;22.77;6.97;;;11.20;99.90;;;;;;4992993;28;20061;-83
2022/05/15 04:58:26;;;;;;;11.93;6.90;;;11.30;99.90;;;;;;4993817;28;20019;-83
2022/05/15 05:00:52;;;;;;;9.95;5.82;;;11.30;99.90;;;;;;5008417;28;20712;-83
2022/05/15 05:03:18;;;;;;;10.15;6.10;;;11.40;99.90;;;;;;5009062;28;20041;-83
2022/05/15 05:05:43;;;;;;;11.50;6.50;;;11.50;99.90;;;;;;4991132;28;20030;-83
2022/05/15 05:08:12;;;;;;;21.33;7.15;;;11.60;99.90;;;;;;4989567;28;20035;-83
2022/05/15 05:10:38;;;;;;;11.82;6.32;;;11.70;99.90;;;;;;5000822;28;20061;-83
2022/05/15 05:13:04;;;;;;;13.32;6.97;;;11.80;99.90;;;;;;4990796;28;20030;-83
2022/05/15 05:15:30;;;;;;;14.90;6.47;;;11.90;99.80;;;;;;5007335;28;20026;-83
2022/05/15 05:17:56;;;;;;;8.82;6.05;;;12.00;99.90;;;;;;4987793;28;20093;-83
2022/05/15 05:20:22;;;;;;;11.52;7.15;;;12.00;99.40;;;;;;4992301;28;20022;-83
2022/05/15 05:22:48;;;;;;;11.48;6.63;;;12.00;98.80;;;;;;4988213;28;20034;-83
2022/05/15 05:25:14;;;;;;;10.68;6.57;;;12.10;97.00;;;;;;4992085;28;20424;-83
2022/05/15 05:27:41;;;;;;;10.18;6.72;;;12.00;98.10;;;;;;4992165;28;20034;-83
2022/05/15 05:30:13;;;;;;;13.73;6.97;;;12.20;98.10;;;;;;4993763;28;20473;-84
2022/05/15 05:32:39;;;;;;;11.02;6.75;;;12.30;97.70;;;;;;4993377;28;20050;-84
2022/05/15 05:35:05;;;;;;;16.67;6.55;;;12.30;99.50;;;;;;4992571;28;20030;-84
2022/05/15 05:37:31;;;;;;;10.93;6.28;;;12.40;96.70;;;;;;4988048;28;20108;-83
2022/05/15 05:39:57;;;;;;;11.35;6.78;;;12.50;96.30;;;;;;5001017;28;20074;-83
2022/05/15 05:42:23;;;;;;;9.68;6.25;;;12.50;96.50;;;;;;4983494;28;20565;-83
2022/05/15 05:44:48;;;;;;;9.10;5.93;;;12.50;96.40;;;;;;4991826;28;20055;-83
2022/05/15 05:47:14;;;;;;;12.25;6.57;;;12.60;95.80;;;;;;4992197;28;20101;-84
2022/05/15 05:49:39;;;;;;;9.73;6.10;;;12.70;95.40;;;;;;5006933;28;20034;-83
2022/05/15 05:52:05;;;;;;;10.60;6.30;;;12.70;95.60;;;;;;5004998;28;20026;-84
2022/05/15 05:54:31;;;;;;;10.57;6.18;;;12.70;95.30;;;;;;5007651;28;20435;-84
2022/05/15 05:56:58;;;;;;;12.75;6.75;;;12.80;96.30;;;;;;4993227;28;20026;-84
2022/05/15 05:59:24;;;;;;;11.88;6.60;;;12.90;95.80;;;;;;5008330;28;20026;-83
2022/05/15 06:01:50;;;;;;;9.82;7.07;;;12.80;95.40;;;;;;4991342;28;20525;-84
2022/05/15 06:07:00;;;;;;;12.57;5.93;;;13.00;94.80;;;;;;4974716;28;20789;-84
2022/05/15 06:09:25;;;;;;;13.05;6.60;;;13.10;94.20;;;;;;4984119;28;20030;-84
2022/05/15 06:11:51;;;;;;;11.10;7.57;;;13.10;96.20;;;;;;4991683;28;20132;-83
2022/05/15 06:14:17;;;;;;;13.20;7.40;;;13.20;94.90;;;;;;4994137;28;20026;-84
2022/05/15 06:16:43;;;;;;;9.35;6.88;;;13.20;95.40;;;;;;4991998;28;20030;-84
2022/05/15 06:19:09;;;;;;;11.40;6.82;;;13.30;97.20;;;;;;5007689;28;20077;-84
2022/05/15 06:21:35;;;;;;;11.23;6.70;;;13.50;95.10;;;;;;4992510;28;20030;-84
2022/05/15 06:24:01;;;;;;;11.93;7.32;;;13.60;96.70;;;;;;4993659;28;20137;-84
2022/05/15 06:26:26;;;;;;;13.48;6.75;;;13.70;94.90;;;;;;4990939;28;20035;-85
2022/05/15 06:28:52;;;;;;;10.05;6.65;;;13.80;96.50;;;;;;4993733;28;20421;-84
2022/05/15 06:31:18;;;;;;;13.70;6.88;;;13.90;95.10;;;;;;4996617;28;20053;-85
2022/05/15 06:33:44;;;;;;;10.88;7.00;;;14.00;94.50;;;;;;4997610;28;20422;-84
2022/05/15 06:36:10;;;;;;;8.68;6.70;;;14.10;94.80;;;;;;4996300;28;20478;-83
2022/05/15 06:38:40;;;;;;;10.98;6.93;;;14.20;96.30;;;;;;4998796;28;20046;-83
2022/05/15 06:41:08;;;;;;;12.40;7.93;;;14.20;95.70;;;;;;4992959;28;20033;-83
2022/05/15 06:43:33;;;;;;;14.10;7.53;;;14.30;97.00;;;;;;4987569;28;20117;-83
2022/05/15 06:45:59;;;;;;;11.15;6.50;;;14.50;95.70;;;;;;4984893;28;20551;-83
2022/05/15 06:48:25;;;;;;;8.82;6.28;;;14.60;95.10;;;;;;4982838;28;20027;-83
2022/05/15 06:50:53;;;;;;;11.93;7.75;;;14.80;93.60;;;;;;5006932;28;20085;-83
2022/05/15 06:53:19;;;;;;;12.82;7.50;;;14.80;94.40;;;;;;4990828;28;20040;-83
2022/05/15 06:58:29;;;;;;;13.52;6.70;;;14.90;94.50;;;;;;4991820;28;20085;-83
2022/05/15 07:00:55;;;;;;;9.38;7.40;;;15.00;93.70;;;;;;4988931;28;20581;-83
2022/05/15 07:03:21;;;;;;;9.60;7.38;;;15.10;93.90;;;;;;4990605;28;20069;-83
2022/05/15 07:05:47;;;;;;;14.70;7.90;;;15.10;92.70;;;;;;4990954;28;20030;-83
2022/05/15 07:08:15;;;;;;;9.63;7.72;;;15.30;93.40;;;;;;4990274;28;20026;-83
2022/05/15 07:10:41;;;;;;;12.32;7.85;;;15.30;92.80;;;;;;4978711;28;20031;-83
2022/05/15 07:13:07;;;;;;;9.98;7.65;;;15.50;94.10;;;;;;4989163;28;20018;-84
2022/05/15 07:15:32;;;;;;;9.88;7.22;;;15.70;92.70;;;;;;4986919;28;20023;-83
2022/05/15 07:18:00;;;;;;;12.60;7.85;;;15.70;93.90;;;;;;4992602;28;20030;-83
2022/05/15 07:20:25;;;;;;;12.95;8.48;;;15.90;92.80;;;;;;4999238;28;20089;-82
2022/05/15 07:22:51;;;;;;;14.15;8.52;;;15.90;93.50;;;;;;4995168;28;20497;-83
2022/05/15 07:25:17;;;;;;;13.63;8.38;;;15.90;93.80;;;;;;4992692;28;20489;-83
2022/05/15 07:27:42;;;;;;;12.30;6.88;;;15.90;93.70;;;;;;5008779;28;20033;-83
2022/05/15 07:30:08;;;;;;;14.32;7.30;;;16.20;93.90;;;;;;5004088;28;20042;-83
2022/05/15 07:32:34;;;;;;;11.38;8.20;;;16.30;93.60;;;;;;5012413;28;20106;-83
2022/05/15 07:35:00;;;;;;;11.63;7.90;;;16.40;93.70;;;;;;5014414;28;20038;-82
2022/05/15 07:37:26;;;;;;;15.55;8.68;;;16.50;93.50;;;;;;5010569;28;20114;-83
2022/05/15 07:39:51;;;;;;;11.98;7.90;;;16.60;92.10;;;;;;5010963;28;20096;-83
2022/05/15 07:42:17;;;;;;;8.88;6.70;;;16.70;90.80;;;;;;4997759;28;20038;-83
2022/05/15 07:44:43;;;;;;;14.15;8.40;;;16.70;92.20;;;;;;4989395;28;20054;-83
2022/05/15 07:47:08;;;;;;;13.75;8.63;;;16.80;91.30;;;;;;5006099;28;20050;-83
2022/05/15 07:49:35;;;;;;;14.07;8.35;;;17.00;91.80;;;;;;4970213;28;20042;-83
2022/05/15 07:52:01;;;;;;;11.68;8.60;;;17.30;91.80;;;;;;4970044;28;20483;-83
2022/05/15 07:54:27;;;;;;;13.88;8.38;;;17.30;90.90;;;;;;4979345;28;20076;-83
2022/05/15 07:56:53;;;;;;;14.55;8.50;;;17.20;90.80;;;;;;5006077;28;20728;-83
2022/05/15 07:59:18;;;;;;;12.02;8.25;;;17.40;91.70;;;;;;4990513;28;20037;-83
2022/05/15 08:01:44;;;;;;;12.27;7.85;;;17.60;92.70;;;;;;4989045;28;20043;-82
2022/05/15 08:04:10;;;;;;;11.30;7.93;;;17.80;90.30;;;;;;5005776;28;20026;-83
2022/05/15 08:09:21;;;;;;;11.52;7.53;;;17.80;89.60;;;;;;4988134;28;20122;-83
2022/05/15 08:11:47;;;;;;;11.40;6.90;;;18.10;90.40;;;;;;4991073;28;20105;-83
2022/05/15 08:14:12;;;;;;;12.05;7.35;;;18.40;85.90;;;;;;4987002;28;20046;-84
2022/05/15 08:16:38;;;;;;;11.25;7.95;;;18.70;85.70;;;;;;4984532;28;20054;-84
2022/05/15 08:24:36;;;;;;;11.15;6.95;;;19.20;82.20;;;;;;4990034;28;20386;-83
2022/05/15 08:27:02;;;;;;;11.15;7.00;;;19.60;79.20;;;;;;4996562;28;20027;-83
2022/05/15 08:29:27;;;;;;;10.55;6.88;;;19.70;76.50;;;;;;4997120;28;20037;-84
2022/05/15 08:31:54;;;;;;;18.40;8.10;;;19.80;77.20;;;;;;5011980;28;20045;-84
2022/05/15 08:34:19;;;;;;;11.43;7.40;;;19.70;75.70;;;;;;4993360;28;20025;-83
2022/05/15 08:36:45;;;;;;;9.80;6.80;;;19.80;78.10;;;;;;5009058;28;20038;-83
2022/05/15 08:39:12;;;;;;;9.90;6.95;;;19.80;74.50;;;;;;4990242;28;20054;-83
2022/05/15 08:42:09;;;;;;;10.80;6.75;;;19.90;74.20;;;;;;4993189;28;20087;-83
2022/05/15 08:44:40;;;;;;;9.57;5.93;;;20.00;71.50;;;;;;4976429;28;20046;-84
2022/05/15 08:47:31;;;;;;;10.50;7.65;;;20.50;73.20;;;;;;4988526;28;20355;-84
2022/05/15 08:50:13;;;;;;;;;;;20.50;67.50;;;;;;5003779;28;20470;-84
2022/05/15 08:52:57;;;;;;;11.27;7.05;;;20.40;69.70;;;;;;5007354;28;19956;-84
2022/05/15 08:55:36;;;;;;;9.82;6.22;;;20.60;70.60;;;;;;5000433;28;20018;-84
2022/05/15 08:58:01;;;;;;;11.15;6.88;;;20.50;70.20;;;;;;4986876;28;20097;-83
2022/05/15 09:00:33;;;;;;;9.80;6.32;;;20.90;66.50;;;;;;4996547;28;20053;-83
2022/05/15 09:03:19;;;;;;;16.65;6.75;;;21.10;79.90;;;;;;4990214;28;20538;-83
2022/05/15 09:06:22;;;;;;;9.20;6.65;;;21.30;65.10;;;;;;4988347;28;20034;-83
2022/05/15 09:09:24;;;;;;;9.57;6.75;;;21.50;66.30;;;;;;5005606;28;20035;-83
2022/05/15 09:12:18;;;;;;;9.48;6.15;;;21.40;63.50;;;;;;4989987;28;21529;-83
2022/05/15 09:14:56;;;;;;;10.57;5.68;;;21.70;63.80;;;;;;4985307;28;20069;-84
2022/05/15 09:17:33;;;;;;;10.15;5.70;;;21.80;60.50;;;;;;5006891;28;20034;-84
2022/05/15 09:20:04;;;;;;;13.07;6.35;;;21.90;61.90;;;;;;4999935;28;20456;-85
2022/05/15 09:22:38;;;;;;;11.52;6.95;;;21.90;63.70;;;;;;4998368;28;20029;-84
2022/05/15 09:25:13;;;;;;;8.52;5.95;;;22.00;64.10;;;;;;4990657;28;20097;-84
2022/05/15 09:27:39;;;;;;;11.00;5.90;;;22.30;63.00;;;;;;4995226;28;20042;-86
2022/05/15 09:30:10;;;;;;;7.70;5.47;;;22.60;59.90;;;;;;4995140;28;20481;-85
2022/05/15 09:32:45;;;;;;;8.00;5.50;;;22.60;56.10;;;;;;4993259;28;20038;-85
2022/05/15 09:35:16;;;;;;;7.78;5.50;;;22.80;58.20;;;;;;4991988;28;20035;-85
2022/05/15 09:43:38;;;;;;;5.90;4.88;;;23.20;51.20;;;;;;4990837;28;20045;-84
2022/05/15 09:46:18;;;;;;;8.98;5.50;;;23.30;52.10;;;;;;4992759;28;20038;-84
2022/05/15 09:49:24;;;;;;;8.75;4.93;;;23.40;51.20;;;;;;4994879;28;20034;-84
2022/05/15 09:51:52;;;;;;;7.15;4.85;;;23.50;51.70;;;;;;4981985;28;20096;-84
2022/05/15 09:54:34;;;;;;;8.07;3.92;;;23.70;53.10;;;;;;4966436;28;20130;-84
2022/05/15 09:57:12;;;;;;;6.53;4.85;;;23.90;50.40;;;;;;4970381;28;20665;-84
2022/05/15 09:59:38;;;;;;;7.10;5.10;;;23.90;50.50;;;;;;4992195;28;20474;-85
2022/05/15 10:02:05;;;;;;;9.13;4.80;;;24.00;47.60;;;;;;4991262;28;20184;-84
2022/05/15 10:04:37;;;;;;;7.82;4.38;;;23.80;47.60;;;;;;4993057;28;20041;-84
2022/05/15 10:07:05;;;;;;;6.35;4.80;;;23.90;48.20;;;;;;5007711;28;20736;-84
2022/05/15 10:09:37;;;;;;;7.93;4.32;;;24.00;44.90;;;;;;4989102;28;20026;-84
2022/05/15 10:12:06;;;;;;;7.47;4.95;;;24.10;48.10;;;;;;4992923;28;20038;-85
2022/05/15 10:14:46;;;;;;;8.88;4.53;;;24.30;45.40;;;;;;4992265;28;20428;-85
2022/05/15 10:17:14;;;;;;;6.53;4.40;;;24.20;48.20;;;;;;4992371;28;20478;-85
2022/05/15 10:20:07;;;;;;;8.45;4.43;;;24.30;46.80;;;;;;4990960;28;20077;-85
2022/05/15 10:23:13;;;;;;;8.20;4.35;;;24.00;45.80;;;;;;4981973;28;20039;-85
2022/05/15 10:25:48;;;;;;;12.40;4.97;;;24.40;47.30;;;;;;4982815;28;20032;-85
2022/05/15 10:28:36;;;;;;;6.75;4.38;;;24.00;43.10;;;;;;4992626;28;20109;-85
2022/05/15 10:31:20;;;;;;;7.93;4.22;;;24.70;46.00;;;;;;4988432;28;20050;-85
2022/05/15 10:33:53;;;;;;;6.28;4.72;;;24.60;43.00;;;;;;4990674;28;20064;-84
2022/05/15 10:36:27;;;;;;;8.45;5.07;;;24.60;43.70;;;;;;4993760;28;20034;-85
2022/05/15 10:38:56;;;;;;;6.68;4.35;;;24.50;45.10;;;;;;5010705;28;20022;-85
2022/05/15 10:41:48;;;;;;;8.32;5.03;;;24.50;44.00;;;;;;5012959;28;20030;-85
2022/05/15 10:44:39;;;;;;;5.40;4.25;;;24.50;46.40;;;;;;5027875;28;20027;-85
2022/05/15 10:47:12;;;;;;;7.10;4.50;;;25.20;44.10;;;;;;5011273;28;20054;-85
2022/05/15 10:49:42;;;;;;;7.40;4.50;;;25.40;42.10;;;;;;5009452;28;20038;-86
2022/05/15 10:52:21;;;;;;;8.07;4.07;;;25.70;42.20;;;;;;5000680;28;20033;-85
2022/05/15 10:58:13;;;;;;;6.45;4.22;;;26.00;41.50;;;;;;4988735;28;20062;-85
2022/05/15 11:01:02;;;;;;;10.00;4.10;;;26.80;38.70;;;;;;4985443;28;20061;-85
2022/05/15 11:03:53;;;;;;;6.97;4.23;;;27.50;38.30;;;;;;5003243;28;20056;-85
2022/05/15 11:07:21;;;;;;;7.68;4.68;;;27.10;36.30;;;;;;4985400;28;20119;-85
2022/05/15 11:10:15;;;;;;;6.75;4.47;;;27.60;38.50;;;;;;4950674;28;20486;-85
2022/05/15 11:12:53;;;;;;;8.77;4.32;;;28.00;35.20;;;;;;4987295;28;20386;-85
2022/05/15 11:15:53;;;;;;;8.68;4.68;;;28.00;34.50;;;;;;4983660;28;20386;-85
2022/05/15 11:18:22;;;;;;;;;;;27.90;34.60;;;;;;4986852;28;20089;-85
2022/05/15 11:20:54;;;;;;;8.40;4.25;;;27.90;34.60;;;;;;5000796;28;19917;-85
2022/05/15 11:23:26;;;;;;;5.30;3.95;;;27.50;35.80;;;;;;4987938;28;20065;-85
2022/05/15 11:26:04;;;;;;;5.72;3.60;;;28.10;33.70;;;;;;4988769;28;20043;-88
2022/05/15 11:28:38;;;;;;;8.35;4.00;;;28.20;33.00;;;;;;4989474;28;20687;-87
2022/05/15 11:31:09;;;;;;;5.95;4.00;;;28.60;33.50;;;;;;4988533;28;20395;-87
2022/05/15 11:33:44;;;;;;;6.25;3.70;;;28.80;31.10;;;;;;4990971;28;20034;-87
2022/05/15 11:36:15;;;;;;;5.45;3.53;;;28.40;35.10;;;;;;4989556;28;20054;-87
2022/05/15 11:39:04;;;;;;;7.10;3.83;;;29.60;30.50;;;;;;4988211;28;20034;-87
2022/05/15 11:41:36;;;;;;;;;;;29.40;34.30;;;;;;4984258;28;20105;-87
2022/05/15 11:44:38;;;;;;;5.05;3.90;;;29.70;32.10;;;;;;4992958;28;19910;-86
2022/05/15 11:47:25;;;;;;;6.93;3.78;;;29.60;29.60;;;;;;4997978;28;20034;-86
2022/05/15 11:49:58;;;;;;;6.13;3.83;;;29.80;31.60;;;;;;5003214;28;20023;-86
2022/05/15 11:52:40;;;;;;;5.22;4.00;;;29.80;31.90;;;;;;4994871;28;20045;-87
2022/05/15 11:55:31;;;;;;;6.10;3.78;;;30.10;31.80;;;;;;4983684;28;20088;-87
2022/05/15 11:58:18;;;;;;;4.85;3.80;;;29.40;31.40;;;;;;4984219;28;20039;-87
2022/05/15 12:01:08;;;;;;;4.13;3.70;;;29.50;32.10;;;;;;4990104;28;20037;-87
2022/05/15 12:03:44;;;;;;;9.75;3.83;;;30.00;32.10;;;;;;5009736;28;20045;-87
2022/05/15 12:06:14;;;;;;;4.63;3.75;;;29.90;30.90;;;;;;4990329;28;20030;-87
2022/05/15 12:08:41;;;;;;;;;;;30.20;29.30;;;;;;4979534;28;20030;-87
2022/05/15 12:11:25;;;;;;;4.75;3.70;;;30.60;31.00;;;;;;4988896;28;20271;-87
2022/05/15 12:13:52;;;;;;;5.75;3.80;;;30.50;29.60;;;;;;4986089;28;20019;-87
2022/05/15 12:16:23;;;;;;;5.07;3.67;;;30.30;29.60;;;;;;4989440;28;20035;-87
2022/05/15 12:18:59;;;;;;;5.22;3.45;;;30.50;29.80;;;;;;4986520;28;20038;-86
2022/05/15 12:21:51;;;;;;;6.32;3.35;;;31.10;29.80;;;;;;4980501;28;20034;-87
2022/05/15 12:24:27;;;;;;;4.70;3.85;;;30.40;28.80;;;;;;4983330;28;20050;-87
2022/05/15 12:26:59;;;;;;;7.13;3.72;;;30.30;29.90;;;;;;4988319;28;20447;-87
2022/05/15 12:29:28;;;;;;;5.30;3.80;;;30.40;28.30;;;;;;4989808;28;20501;-87
2022/05/15 12:31:55;;;;;;;5.70;3.80;;;30.80;28.70;;;;;;4990594;28;20042;-87
2022/05/15 12:34:35;;;;;;;7.10;3.50;;;31.10;27.50;;;;;;4989743;28;20030;-87
2022/05/15 12:37:15;;;;;;;6.05;3.42;;;31.90;26.90;;;;;;4980968;28;20019;-87
2022/05/15 12:39:45;;;;;;;6.60;3.78;;;31.70;28.60;;;;;;4958915;28;20439;-87
2022/05/15 12:42:24;;;;;;;4.40;3.22;;;31.80;28.10;;;;;;4977509;28;20504;-87
2022/05/15 12:45:12;;;;;;;7.38;3.67;;;31.80;27.50;;;;;;5003690;28;20062;-86
2022/05/15 12:47:39;;;;;;;5.03;3.30;;;32.20;28.40;;;;;;4992199;28;20038;-87
2022/05/15 12:50:26;;;;;;;5.38;3.63;;;32.80;27.20;;;;;;4991601;28;20066;-86
2022/05/15 12:52:57;;;;;;;4.05;3.25;;;32.50;25.70;;;;;;4979322;28;20698;-87
2022/05/15 12:55:29;;;;;;;5.20;3.40;;;32.40;27.40;;;;;;4987674;28;20034;-86
2022/05/15 12:57:57;;;;;;;3.35;3.05;;;32.70;26.40;;;;;;4992012;28;20026;-86
2022/05/15 13:00:37;;;;;;;3.67;3.10;;;31.70;25.90;;;;;;4997666;28;20034;-86
2022/05/15 13:03:06;;;;;;;4.43;3.05;;;31.80;27.30;;;;;;4990913;28;20454;-86
2022/05/15 13:05:36;;;;;;;;;;;32.10;26.00;;;;;;4985625;28;20038;-86
2022/05/15 13:08:06;;;;;;;3.78;3.13;;;31.70;27.30;;;;;;4983776;28;19913;-86
2022/05/15 13:10:33;;;;;;;4.18;3.50;;;31.30;26.10;;;;;;4962813;28;20061;-86
2022/05/15 13:13:04;;;;;;;5.90;3.83;;;32.30;26.40;;;;;;4971594;28;20038;-86
2022/05/15 13:15:32;;;;;;;5.05;3.50;;;33.00;26.60;;;;;;4987411;28;20088;-86
2022/05/15 13:18:06;;;;;;;6.80;3.10;;;33.00;26.50;;;;;;4994945;28;20068;-86
2022/05/15 13:20:37;;;;;;;5.03;3.60;;;32.60;24.50;;;;;;4986510;28;20493;-87
2022/05/15 13:23:03;;;;;;;7.45;3.20;;;32.80;25.10;;;;;;4981466;28;20073;-87